Time;durP1;ratioP1;P1;durP2;ratioP2;P2;SDS_P1;SDS_P2;PMS_P1;PMS_P2;Temp;Humidity;BMP_temperature;BMP_pressure;BME280_temperature;BME280_humidity;BME280_pressure;Samples;Min_cycle;Max_cycle;Signal;HPM_P1;HPM_P2
2023/08/08 00:01:01;;;;;;;0.50;0.38;;;15.10;99.90;;;;;;5102835;27;20112;-71
2023/08/08 00:03:27;;;;;;;0.28;0.15;;;15.00;99.90;;;;;;5109965;27;20047;-72
2023/08/08 00:05:52;;;;;;;0.30;0.20;;;15.00;99.90;;;;;;5106292;27;20507;-73
2023/08/08 00:08:18;;;;;;;0.20;0.20;;;15.00;99.90;;;;;;5108992;27;20027;-66
2023/08/08 00:10:44;;;;;;;0.20;0.20;;;15.00;99.90;;;;;;5107537;27;20027;-67
2023/08/08 00:13:10;;;;;;;0.20;0.20;;;14.90;99.90;;;;;;5106117;27;20023;-66
2023/08/08 00:15:36;;;;;;;0.30;0.30;;;15.00;99.90;;;;;;5106465;27;20581;-66
2023/08/08 00:18:02;;;;;;;0.40;0.30;;;15.00;99.90;;;;;;5101289;27;20080;-66
2023/08/08 00:20:28;;;;;;;0.60;0.40;;;15.00;99.90;;;;;;5098330;27;20799;-67
2023/08/08 00:22:53;;;;;;;0.20;0.20;;;14.90;99.90;;;;;;5094703;27;20071;-66
2023/08/08 00:25:19;;;;;;;0.55;0.20;;;14.90;99.90;;;;;;5099657;27;20471;-73
2023/08/08 00:27:45;;;;;;;0.30;0.30;;;14.90;99.90;;;;;;5095657;27;20030;-76
2023/08/08 00:30:12;;;;;;;0.25;0.25;;;14.90;99.90;;;;;;5107631;27;20407;-76
2023/08/08 00:32:38;;;;;;;0.57;0.40;;;14.90;99.90;;;;;;5109100;27;20130;-76
2023/08/08 00:35:04;;;;;;;0.20;0.10;;;14.90;99.90;;;;;;5111707;27;20083;-77
2023/08/08 00:37:30;;;;;;;0.47;0.30;;;14.90;99.90;;;;;;5113911;27;20114;-77
2023/08/08 00:39:55;;;;;;;0.35;0.20;;;14.90;99.90;;;;;;5107986;27;20027;-76
2023/08/08 00:42:21;;;;;;;0.52;0.38;;;14.90;99.90;;;;;;5111589;27;20110;-78
2023/08/08 00:44:48;;;;;;;0.10;0.10;;;14.90;99.90;;;;;;5085770;28;20308;-77
2023/08/08 00:47:14;;;;;;;1.08;0.32;;;14.90;99.90;;;;;;5090268;28;20096;-77
2023/08/08 00:49:40;;;;;;;1.45;0.20;;;14.90;99.90;;;;;;5069561;28;20097;-77
2023/08/08 00:52:07;;;;;;;0.10;0.10;;;14.90;99.90;;;;;;5076810;28;20039;-75
2023/08/08 00:54:33;;;;;;;0.22;0.15;;;14.90;99.90;;;;;;5088667;28;20040;-75
2023/08/08 00:56:59;;;;;;;0.28;0.20;;;14.90;99.90;;;;;;5089575;28;20038;-75
2023/08/08 00:59:24;;;;;;;0.20;0.20;;;14.90;99.90;;;;;;5090745;28;20055;-75
2023/08/08 01:01:50;;;;;;;0.20;0.10;;;15.00;99.90;;;;;;5086379;28;20028;-75
2023/08/08 01:04:17;;;;;;;0.32;0.20;;;15.00;99.90;;;;;;5065489;28;20486;-75
2023/08/08 01:06:47;;;;;;;0.15;0.15;;;15.00;99.90;;;;;;5063174;28;20027;-76
2023/08/08 01:09:24;;;;;;;0.93;0.30;;;15.00;99.90;;;;;;5088893;28;20111;-75
2023/08/08 01:11:52;;;;;;;0.20;0.20;;;15.00;99.90;;;;;;5092982;28;20032;-75
2023/08/08 01:14:18;;;;;;;1.38;0.52;;;15.00;99.90;;;;;;5088420;28;20036;-75
2023/08/08 01:16:45;;;;;;;0.25;0.20;;;15.10;99.90;;;;;;5072239;28;20970;-74
2023/08/08 01:19:18;;;;;;;0.15;0.15;;;15.10;99.90;;;;;;5078834;28;20040;-75
2023/08/08 01:21:45;;;;;;;0.43;0.20;;;15.10;99.90;;;;;;5078227;28;20028;-68
2023/08/08 01:24:17;;;;;;;0.20;0.15;;;15.10;99.90;;;;;;5080347;28;20043;-67
2023/08/08 01:26:44;;;;;;;1.10;0.20;;;15.10;99.90;;;;;;5049680;28;20496;-67
2023/08/08 01:29:09;;;;;;;0.20;0.20;;;15.10;99.90;;;;;;5079532;28;20043;-67
2023/08/08 01:31:35;;;;;;;0.45;0.20;;;15.10;99.90;;;;;;5081258;28;20032;-67
2023/08/08 01:34:00;;;;;;;0.15;0.15;;;15.20;99.90;;;;;;5093233;28;20032;-67
2023/08/08 01:36:38;;;;;;;0.13;0.13;;;15.20;99.90;;;;;;5092381;28;20110;-67
2023/08/08 01:39:09;;;;;;;0.68;0.22;;;15.20;99.90;;;;;;5090167;28;20828;-74
2023/08/08 01:41:38;;;;;;;0.13;0.10;;;15.20;99.90;;;;;;5094064;28;20396;-76
2023/08/08 01:44:05;;;;;;;0.32;0.20;;;15.10;99.90;;;;;;5096003;28;20091;-75
2023/08/08 01:46:30;;;;;;;0.20;0.20;;;15.10;99.90;;;;;;5097423;28;20024;-75
2023/08/08 01:48:59;;;;;;;0.20;0.20;;;15.10;99.90;;;;;;5093751;28;20512;-75
2023/08/08 01:51:25;;;;;;;1.10;0.20;;;15.00;99.90;;;;;;5091649;28;20019;-75
2023/08/08 01:53:51;;;;;;;0.80;0.30;;;15.00;99.90;;;;;;5095703;28;20028;-75
2023/08/08 01:56:17;;;;;;;0.20;0.20;;;15.00;99.90;;;;;;5093506;28;20020;-75
2023/08/08 01:58:42;;;;;;;1.30;0.55;;;15.10;99.90;;;;;;5096565;28;20064;-76
2023/08/08 02:01:08;;;;;;;2.15;0.50;;;15.00;99.90;;;;;;5091803;28;20030;-74
2023/08/08 02:03:34;;;;;;;1.45;0.40;;;15.00;99.90;;;;;;5092265;28;20040;-75
2023/08/08 02:05:59;;;;;;;0.22;0.20;;;15.10;99.90;;;;;;5092486;28;20036;-75
2023/08/08 02:08:25;;;;;;;0.60;0.20;;;15.10;99.90;;;;;;5092576;28;20028;-70
2023/08/08 02:10:50;;;;;;;0.82;0.43;;;15.10;99.90;;;;;;5089967;28;20027;-70
2023/08/08 02:13:16;;;;;;;0.60;0.40;;;15.10;99.90;;;;;;5095364;28;20031;-70
2023/08/08 02:15:41;;;;;;;3.63;0.35;;;15.20;99.90;;;;;;5093383;28;20058;-71
2023/08/08 02:18:08;;;;;;;0.63;0.20;;;15.20;99.90;;;;;;5092064;28;20146;-69
2023/08/08 02:20:34;;;;;;;0.40;0.05;;;15.20;99.90;;;;;;5088501;28;20084;-69
2023/08/08 02:23:00;;;;;;;0.10;0.10;;;15.20;99.90;;;;;;5089035;28;22283;-69
2023/08/08 02:25:25;;;;;;;1.33;0.32;;;15.10;99.90;;;;;;5093149;28;20426;-69
2023/08/08 02:27:51;;;;;;;0.57;0.20;;;15.10;99.90;;;;;;5094915;28;20028;-69
2023/08/08 02:30:17;;;;;;;1.55;0.38;;;15.00;99.90;;;;;;5093566;28;20450;-69
2023/08/08 02:32:42;;;;;;;0.63;0.40;;;15.00;99.90;;;;;;5093827;28;20032;-69
2023/08/08 02:35:08;;;;;;;0.65;0.50;;;14.90;99.90;;;;;;5094674;28;20400;-69
2023/08/08 02:37:34;;;;;;;0.38;0.30;;;14.90;99.90;;;;;;5089003;28;20801;-69
2023/08/08 02:39:59;;;;;;;1.27;0.50;;;14.90;99.90;;;;;;5089189;28;20035;-69
2023/08/08 02:42:25;;;;;;;0.20;0.20;;;14.90;99.90;;;;;;5088555;28;20068;-69
2023/08/08 02:44:51;;;;;;;0.30;0.28;;;14.80;99.90;;;;;;5093956;28;20035;-69
2023/08/08 02:47:16;;;;;;;0.45;0.30;;;14.80;99.90;;;;;;5074246;28;20612;-69
2023/08/08 02:49:42;;;;;;;0.47;0.25;;;14.70;99.90;;;;;;5090560;28;20031;-69
2023/08/08 02:52:07;;;;;;;0.30;0.30;;;14.70;99.90;;;;;;5091520;28;20030;-69
2023/08/08 02:54:33;;;;;;;0.75;0.10;;;14.70;99.90;;;;;;5092625;28;20035;-69
2023/08/08 02:56:59;;;;;;;0.20;0.20;;;14.60;99.90;;;;;;5095331;28;20071;-69
2023/08/08 02:59:24;;;;;;;0.60;0.60;;;14.50;99.90;;;;;;5091664;28;20636;-69
2023/08/08 03:01:50;;;;;;;2.15;0.20;;;14.40;99.90;;;;;;5084215;28;20484;-68
2023/08/08 03:04:15;;;;;;;0.30;0.30;;;14.40;99.90;;;;;;5080799;28;20028;-69
2023/08/08 03:06:41;;;;;;;4.13;0.70;;;14.40;99.90;;;;;;5088635;28;20039;-69
2023/08/08 03:09:07;;;;;;;0.38;0.30;;;14.40;99.90;;;;;;5084804;28;20496;-69
2023/08/08 03:11:32;;;;;;;0.60;0.20;;;14.40;99.90;;;;;;5075913;28;20475;-69
2023/08/08 03:13:58;;;;;;;2.25;0.35;;;14.40;99.90;;;;;;5079891;27;20042;-69
2023/08/08 03:16:24;;;;;;;0.47;0.30;;;14.40;99.90;;;;;;5091610;28;20119;-69
2023/08/08 03:18:50;;;;;;;2.88;0.30;;;14.30;99.90;;;;;;5079921;28;20452;-69
2023/08/08 03:21:16;;;;;;;1.00;0.40;;;14.30;99.90;;;;;;5077470;28;20566;-68
2023/08/08 03:23:41;;;;;;;0.45;0.35;;;14.20;99.90;;;;;;5081990;28;20058;-69
2023/08/08 03:26:07;;;;;;;0.65;0.45;;;14.20;99.90;;;;;;5084672;28;20085;-68
2023/08/08 03:28:32;;;;;;;1.25;0.40;;;14.10;99.90;;;;;;5076891;28;20030;-69
2023/08/08 03:30:58;;;;;;;1.15;0.50;;;14.10;99.90;;;;;;5078810;28;20123;-70
2023/08/08 03:33:24;;;;;;;0.60;0.50;;;14.10;99.90;;;;;;5076793;28;20043;-70
2023/08/08 03:35:49;;;;;;;0.57;0.40;;;14.10;99.90;;;;;;5081501;28;20036;-70
2023/08/08 03:38:15;;;;;;;0.38;0.30;;;14.00;99.90;;;;;;5090875;28;20024;-70
2023/08/08 03:40:41;;;;;;;2.55;0.40;;;14.00;99.90;;;;;;5077553;28;20051;-70
2023/08/08 03:43:07;;;;;;;1.17;0.43;;;14.00;99.90;;;;;;5082157;28;20251;-70
2023/08/08 03:45:32;;;;;;;0.45;0.30;;;14.00;99.90;;;;;;5088257;28;20030;-70
2023/08/08 03:47:58;;;;;;;1.38;0.40;;;14.00;99.90;;;;;;5093760;28;20020;-70
2023/08/08 03:50:23;;;;;;;0.22;0.20;;;14.00;99.90;;;;;;5088491;28;20039;-70
2023/08/08 03:52:49;;;;;;;0.70;0.70;;;14.00;99.90;;;;;;5084947;28;20035;-70
2023/08/08 03:55:15;;;;;;;0.80;0.45;;;14.00;99.90;;;;;;5090134;28;20033;-70
2023/08/08 03:57:42;;;;;;;0.38;0.38;;;14.00;99.90;;;;;;5083045;28;20131;-70
2023/08/08 04:00:08;;;;;;;0.75;0.50;;;14.00;99.90;;;;;;5082910;28;23385;-70
2023/08/08 04:02:34;;;;;;;1.08;0.50;;;14.10;99.90;;;;;;5092144;28;20105;-70
2023/08/08 04:04:59;;;;;;;2.15;0.40;;;14.10;99.90;;;;;;5083407;28;20038;-70
2023/08/08 04:07:25;;;;;;;0.93;0.50;;;14.20;99.90;;;;;;5088695;28;20036;-69
2023/08/08 04:09:50;;;;;;;0.90;0.60;;;14.20;99.90;;;;;;5081961;28;20034;-69
2023/08/08 04:12:16;;;;;;;0.57;0.40;;;14.20;99.90;;;;;;5088325;28;20551;-69
2023/08/08 04:14:41;;;;;;;1.83;0.40;;;14.20;99.90;;;;;;5089423;28;20657;-69
2023/08/08 04:17:07;;;;;;;0.75;0.60;;;14.30;99.90;;;;;;5093051;28;20032;-69
2023/08/08 04:19:33;;;;;;;0.40;0.30;;;14.30;99.90;;;;;;5083622;28;20476;-69
2023/08/08 04:21:59;;;;;;;1.65;0.40;;;14.20;99.90;;;;;;5087902;28;20148;-69
2023/08/08 04:24:25;;;;;;;0.70;0.57;;;14.20;99.90;;;;;;5085852;28;20032;-70
2023/08/08 04:26:50;;;;;;;1.20;0.60;;;14.30;99.90;;;;;;5067656;28;20031;-70
2023/08/08 04:29:16;;;;;;;1.30;0.60;;;14.30;99.90;;;;;;5088490;28;20036;-71
2023/08/08 04:31:41;;;;;;;0.40;0.40;;;14.30;99.90;;;;;;5086364;28;20099;-70
2023/08/08 04:34:07;;;;;;;0.70;0.70;;;14.40;99.90;;;;;;5088447;28;20089;-71
2023/08/08 04:36:33;;;;;;;1.60;0.68;;;14.40;99.90;;;;;;5087801;28;20345;-71
2023/08/08 04:38:58;;;;;;;2.00;0.73;;;14.50;99.90;;;;;;5087498;28;20036;-71
2023/08/08 04:41:24;;;;;;;0.70;0.40;;;14.60;99.90;;;;;;5080680;28;20606;-70
2023/08/08 04:43:50;;;;;;;1.10;0.50;;;14.60;99.90;;;;;;5079609;28;20043;-69
2023/08/08 04:46:15;;;;;;;0.40;0.35;;;14.70;99.90;;;;;;5089634;28;20024;-69
2023/08/08 04:48:41;;;;;;;2.25;0.40;;;14.70;99.90;;;;;;5090852;28;20032;-69
2023/08/08 04:51:08;;;;;;;5.78;1.35;;;14.70;99.90;;;;;;5088574;28;20622;-69
2023/08/08 04:53:33;;;;;;;1.00;0.50;;;14.80;99.90;;;;;;5091847;28;20046;-69
2023/08/08 04:55:59;;;;;;;1.83;0.63;;;14.80;99.90;;;;;;5089923;28;20028;-69
2023/08/08 04:58:25;;;;;;;0.98;0.70;;;14.90;99.90;;;;;;5065019;28;20088;-69
2023/08/08 05:00:50;;;;;;;2.17;0.55;;;15.00;99.90;;;;;;5070330;28;20028;-69
2023/08/08 05:03:17;;;;;;;1.00;0.60;;;15.00;99.90;;;;;;5085913;28;20709;-69
2023/08/08 05:05:44;;;;;;;1.00;0.60;;;15.10;99.90;;;;;;5086754;28;20028;-69
2023/08/08 05:08:11;;;;;;;0.60;0.60;;;15.30;99.90;;;;;;5094867;28;20036;-69
2023/08/08 05:10:36;;;;;;;1.42;0.60;;;15.40;99.90;;;;;;5089204;28;20027;-69
2023/08/08 05:13:02;;;;;;;1.52;0.40;;;15.50;99.90;;;;;;5069988;28;20412;-70
2023/08/08 05:15:28;;;;;;;0.60;0.57;;;15.60;99.90;;;;;;5085978;28;20484;-70
2023/08/08 05:17:55;;;;;;;0.70;0.40;;;15.70;99.90;;;;;;5081605;28;20031;-69
2023/08/08 05:20:21;;;;;;;1.35;0.60;;;15.80;99.90;;;;;;5075599;28;20152;-69
2023/08/08 05:22:46;;;;;;;0.70;0.50;;;15.90;99.90;;;;;;5084347;28;20044;-69
2023/08/08 05:25:12;;;;;;;1.45;1.00;;;16.00;99.90;;;;;;5089884;28;20502;-69
2023/08/08 05:27:38;;;;;;;2.30;0.95;;;16.10;99.90;;;;;;5090990;28;20036;-69
2023/08/08 05:30:04;;;;;;;2.15;0.60;;;16.10;99.90;;;;;;5068158;28;20024;-69
2023/08/08 05:32:30;;;;;;;2.03;0.65;;;16.10;99.90;;;;;;5087489;28;20110;-67
2023/08/08 05:34:57;;;;;;;2.22;0.75;;;16.20;99.90;;;;;;5088525;28;20144;-69
2023/08/08 05:37:23;;;;;;;0.77;0.63;;;16.30;99.90;;;;;;5084223;28;20483;-69
2023/08/08 05:39:49;;;;;;;5.18;1.05;;;16.30;99.90;;;;;;5085376;28;21064;-69
2023/08/08 05:42:15;;;;;;;2.88;0.75;;;16.30;99.90;;;;;;5084026;28;20163;-69
2023/08/08 05:44:44;;;;;;;1.85;0.60;;;16.40;99.90;;;;;;5092256;28;20031;-70
2023/08/08 05:47:10;;;;;;;0.60;0.60;;;16.50;99.90;;;;;;5062194;28;20024;-69
2023/08/08 05:49:35;;;;;;;2.83;0.80;;;16.50;99.90;;;;;;5077701;28;20042;-69
2023/08/08 05:52:01;;;;;;;2.58;0.63;;;16.60;99.90;;;;;;5074418;28;20229;-69
2023/08/08 05:54:28;;;;;;;2.13;0.63;;;16.60;99.90;;;;;;5086024;28;20050;-69
2023/08/08 05:56:53;;;;;;;2.05;0.90;;;16.70;99.90;;;;;;5054216;28;20035;-69
2023/08/08 05:59:19;;;;;;;5.40;1.90;;;16.80;99.90;;;;;;5078241;28;20440;-69
2023/08/08 06:01:46;;;;;;;1.55;0.90;;;16.90;99.90;;;;;;5077682;28;20039;-69
2023/08/08 06:04:12;;;;;;;0.85;0.47;;;17.00;99.90;;;;;;5080733;28;20028;-70
2023/08/08 06:06:38;;;;;;;2.50;0.90;;;17.10;99.90;;;;;;5076609;28;21282;-69
2023/08/08 06:09:03;;;;;;;4.93;0.55;;;17.20;99.90;;;;;;5086321;28;20054;-71
2023/08/08 06:11:29;;;;;;;2.58;0.80;;;17.40;99.90;;;;;;5083798;28;20031;-70
2023/08/08 06:13:55;;;;;;;1.00;0.65;;;17.60;99.90;;;;;;5091770;28;20537;-69
2023/08/08 06:16:21;;;;;;;2.97;0.68;;;17.70;99.90;;;;;;5082846;28;21687;-69
2023/08/08 06:18:46;;;;;;;1.65;0.70;;;17.80;99.90;;;;;;5081171;28;20132;-69
2023/08/08 06:21:12;;;;;;;1.27;0.63;;;17.90;99.90;;;;;;5087863;28;20106;-70
2023/08/08 06:23:38;;;;;;;3.25;0.70;;;17.90;99.90;;;;;;5093205;28;20417;-70
2023/08/08 06:26:04;;;;;;;1.05;0.70;;;18.00;99.90;;;;;;5085381;28;20031;-69
2023/08/08 06:28:30;;;;;;;5.85;0.70;;;18.10;99.90;;;;;;5085621;28;20063;-69
2023/08/08 06:30:57;;;;;;;3.50;0.70;;;18.00;99.90;;;;;;5080309;28;20035;-70
2023/08/08 06:33:23;;;;;;;1.25;0.80;;;18.00;99.90;;;;;;5080182;28;20024;-69
2023/08/08 06:35:49;;;;;;;1.33;0.68;;;18.00;99.90;;;;;;5078023;28;20023;-70
2023/08/08 06:38:15;;;;;;;2.53;0.75;;;18.00;99.90;;;;;;5079038;28;20121;-69
2023/08/08 06:40:40;;;;;;;1.48;0.73;;;18.10;99.90;;;;;;5079795;28;20060;-69
2023/08/08 06:43:06;;;;;;;1.77;0.93;;;18.20;99.90;;;;;;5092676;28;20027;-69
2023/08/08 06:45:32;;;;;;;2.50;0.93;;;18.30;99.90;;;;;;5089172;28;20030;-69
2023/08/08 06:47:57;;;;;;;1.15;0.50;;;18.50;99.90;;;;;;5094165;28;20023;-69
2023/08/08 06:50:24;;;;;;;1.55;0.60;;;18.70;99.90;;;;;;5085579;28;20110;-69
2023/08/08 06:52:50;;;;;;;1.20;0.73;;;18.90;99.90;;;;;;5094690;28;20039;-69
2023/08/08 06:55:16;;;;;;;1.00;0.70;;;19.00;99.90;;;;;;5095999;28;20056;-69
2023/08/08 06:57:41;;;;;;;2.28;0.73;;;19.00;99.90;;;;;;5086767;28;20027;-69
2023/08/08 07:00:08;;;;;;;2.30;0.70;;;19.00;99.90;;;;;;5089676;28;20045;-69
2023/08/08 07:02:34;;;;;;;1.10;0.60;;;19.00;99.90;;;;;;5070779;28;20172;-69
2023/08/08 07:05:00;;;;;;;1.40;1.00;;;18.90;99.90;;;;;;5073732;28;20028;-69
2023/08/08 07:07:25;;;;;;;1.75;0.80;;;18.80;99.90;;;;;;5086939;28;20085;-69
2023/08/08 07:09:51;;;;;;;3.10;1.33;;;18.60;99.90;;;;;;5066093;28;20031;-70
2023/08/08 07:12:17;;;;;;;5.18;0.85;;;18.70;99.90;;;;;;5085359;28;20035;-69
2023/08/08 07:14:42;;;;;;;2.20;0.77;;;18.70;99.90;;;;;;5084287;28;20043;-69
2023/08/08 07:17:08;;;;;;;1.73;0.80;;;18.60;99.90;;;;;;5079577;28;20395;-70
2023/08/08 07:19:36;;;;;;;3.45;0.93;;;18.50;99.90;;;;;;5076901;28;20063;-70
2023/08/08 07:22:02;;;;;;;1.80;0.82;;;18.60;99.90;;;;;;5078726;28;20114;-69
2023/08/08 07:24:28;;;;;;;2.30;0.80;;;18.60;99.90;;;;;;5095329;28;20035;-70
2023/08/08 07:26:55;;;;;;;2.13;0.90;;;18.60;99.90;;;;;;5083644;28;20636;-72
2023/08/08 07:29:21;;;;;;;8.93;1.10;;;18.70;99.90;;;;;;5050023;28;20539;-69
2023/08/08 07:31:46;;;;;;;2.00;1.35;;;18.90;99.90;;;;;;5084986;28;20165;-70
2023/08/08 07:34:12;;;;;;;6.35;0.77;;;19.00;99.90;;;;;;5085172;28;20032;-70
2023/08/08 07:36:38;;;;;;;2.17;0.80;;;19.00;99.90;;;;;;5084073;28;20035;-69
2023/08/08 07:39:03;;;;;;;3.28;0.80;;;19.10;99.90;;;;;;5092083;28;20401;-70
2023/08/08 07:41:30;;;;;;;0.80;0.65;;;19.20;99.90;;;;;;5087014;28;20048;-70
2023/08/08 07:43:56;;;;;;;2.47;0.88;;;19.20;99.90;;;;;;5090148;28;20051;-70
2023/08/08 07:46:22;;;;;;;1.75;0.95;;;19.10;99.90;;;;;;5091010;28;20024;-69
2023/08/08 07:48:47;;;;;;;6.45;1.35;;;19.10;99.90;;;;;;5086711;28;20078;-70
2023/08/08 07:51:13;;;;;;;1.58;0.88;;;19.10;99.90;;;;;;5080915;28;20496;-70
2023/08/08 07:53:39;;;;;;;1.58;0.90;;;19.10;99.90;;;;;;5067581;28;20036;-71
2023/08/08 07:56:04;;;;;;;2.33;0.70;;;19.00;99.90;;;;;;5083714;28;20365;-71
2023/08/08 07:58:32;;;;;;;0.93;0.65;;;18.90;99.90;;;;;;5089872;27;20031;-71
2023/08/08 08:00:58;;;;;;;3.63;0.90;;;18.80;99.90;;;;;;5094758;28;20034;-71
2023/08/08 08:03:25;;;;;;;9.43;1.15;;;18.70;99.90;;;;;;5090737;27;20042;-70
2023/08/08 08:05:51;;;;;;;3.65;1.38;;;18.70;99.90;;;;;;5081738;28;20056;-69
2023/08/08 08:08:17;;;;;;;1.92;0.90;;;18.80;99.90;;;;;;5081274;28;20213;-70
2023/08/08 08:10:42;;;;;;;2.60;0.65;;;18.90;99.90;;;;;;5077917;28;20043;-69
2023/08/08 08:13:08;;;;;;;2.83;0.80;;;18.90;99.90;;;;;;5082977;28;22979;-69
2023/08/08 08:15:34;;;;;;;3.95;0.80;;;19.00;99.90;;;;;;5086787;28;20021;-69
2023/08/08 08:18:00;;;;;;;1.70;0.93;;;19.10;99.90;;;;;;5084087;28;21230;-69
2023/08/08 08:20:25;;;;;;;2.75;0.82;;;19.30;99.90;;;;;;5089640;28;20055;-69
2023/08/08 08:22:51;;;;;;;1.33;0.80;;;19.20;99.90;;;;;;5084181;28;20821;-69
2023/08/08 08:25:17;;;;;;;1.10;0.70;;;19.20;99.90;;;;;;5077123;28;20047;-70
2023/08/08 08:27:42;;;;;;;1.20;0.70;;;19.20;99.90;;;;;;5082458;28;20035;-70
2023/08/08 08:30:11;;;;;;;1.13;0.80;;;19.30;99.90;;;;;;5068691;28;20028;-70
2023/08/08 08:32:39;;;;;;;3.63;0.80;;;19.30;99.90;;;;;;5081357;28;20273;-70
2023/08/08 08:35:06;;;;;;;2.55;0.85;;;19.30;99.90;;;;;;5077479;28;20495;-70
2023/08/08 08:37:32;;;;;;;2.03;0.90;;;19.30;99.90;;;;;;5079297;28;20519;-70
2023/08/08 08:39:58;;;;;;;2.45;0.70;;;19.30;99.90;;;;;;5077577;28;20031;-70
2023/08/08 08:42:26;;;;;;;2.42;0.80;;;19.20;99.90;;;;;;5071305;28;20039;-69
2023/08/08 08:44:53;;;;;;;1.17;0.80;;;19.00;99.90;;;;;;5080827;28;20537;-68
2023/08/08 08:47:21;;;;;;;1.33;0.82;;;18.90;99.90;;;;;;5085501;28;20032;-69
2023/08/08 08:49:47;;;;;;;1.25;1.00;;;18.80;99.90;;;;;;5084727;28;20023;-69
2023/08/08 08:52:13;;;;;;;1.55;0.88;;;18.70;99.90;;;;;;5082890;28;20478;-69
2023/08/08 08:54:39;;;;;;;3.67;0.73;;;18.50;99.90;;;;;;5089102;28;20085;-69
2023/08/08 08:57:05;;;;;;;2.83;0.95;;;18.40;99.90;;;;;;5069409;28;20026;-69
2023/08/08 08:59:31;;;;;;;1.95;1.00;;;18.30;99.90;;;;;;5089777;28;20031;-69
2023/08/08 09:01:57;;;;;;;1.02;0.60;;;18.30;99.90;;;;;;5056147;28;20141;-70
2023/08/08 09:04:23;;;;;;;1.35;0.75;;;18.40;99.90;;;;;;5082368;28;20047;-70
2023/08/08 09:06:50;;;;;;;0.80;0.77;;;18.50;99.90;;;;;;5083750;28;20016;-70
2023/08/08 09:09:17;;;;;;;1.50;0.80;;;18.60;99.90;;;;;;5071783;28;20039;-70
2023/08/08 09:11:45;;;;;;;2.03;0.80;;;18.40;99.90;;;;;;5049407;28;20340;-69
2023/08/08 09:14:22;;;;;;;10.15;0.98;;;18.30;99.90;;;;;;5069681;28;20552;-70
2023/08/08 09:16:48;;;;;;;1.17;0.63;;;18.20;99.90;;;;;;5084231;28;20077;-70
2023/08/08 09:19:17;;;;;;;1.35;0.85;;;18.20;99.90;;;;;;5064735;28;20025;-70
2023/08/08 09:21:43;;;;;;;1.65;1.00;;;18.10;99.90;;;;;;5047410;28;20039;-70
2023/08/08 09:24:09;;;;;;;2.17;0.90;;;18.10;99.90;;;;;;5076497;28;20189;-71
2023/08/08 09:26:35;;;;;;;1.85;0.82;;;18.20;99.90;;;;;;5077254;28;20037;-70
2023/08/08 09:29:02;;;;;;;2.85;0.70;;;18.20;99.90;;;;;;5080190;28;20170;-70
2023/08/08 09:31:29;;;;;;;3.08;0.85;;;18.10;99.90;;;;;;5088607;28;20020;-70
2023/08/08 09:33:58;;;;;;;1.92;1.05;;;18.10;99.90;;;;;;5084371;28;20412;-70
2023/08/08 09:36:23;;;;;;;2.20;1.00;;;18.10;99.90;;;;;;5075407;28;20032;-70
2023/08/08 09:38:49;;;;;;;2.60;1.10;;;18.10;99.90;;;;;;5089306;28;20488;-69
2023/08/08 09:41:15;;;;;;;1.95;1.00;;;18.10;99.90;;;;;;5045493;28;20040;-69
2023/08/08 09:43:47;;;;;;;2.13;1.00;;;18.10;99.90;;;;;;5076301;28;20515;-69
2023/08/08 09:46:14;;;;;;;;;;;18.20;99.90;;;;;;5087000;28;20257;-69
2023/08/08 09:48:40;;;;;;;1.52;0.95;;;18.20;99.90;;;;;;5085541;28;20203;-69
2023/08/08 09:51:08;;;;;;;1.10;0.70;;;18.30;99.90;;;;;;5092168;28;20039;-69
2023/08/08 09:53:34;;;;;;;2.17;0.70;;;18.20;99.90;;;;;;5090646;28;20613;-68
2023/08/08 09:56:03;;;;;;;2.10;0.80;;;18.20;99.90;;;;;;5094351;28;20035;-69
2023/08/08 09:58:29;;;;;;;1.15;0.93;;;18.20;99.90;;;;;;5077903;28;20500;-69
2023/08/08 10:00:55;;;;;;;3.88;1.10;;;18.20;99.90;;;;;;5080973;28;20033;-69
2023/08/08 10:03:22;;;;;;;4.05;0.80;;;18.20;99.90;;;;;;5073119;28;20213;-69
2023/08/08 10:05:47;;;;;;;2.35;1.10;;;18.30;99.90;;;;;;5052020;28;20093;-69
2023/08/08 10:08:17;;;;;;;1.23;0.95;;;18.40;99.90;;;;;;5081862;28;20028;-69
2023/08/08 10:10:48;;;;;;;1.83;0.82;;;18.50;99.90;;;;;;5089151;28;20657;-68
2023/08/08 10:13:25;;;;;;;2.35;1.10;;;18.50;99.90;;;;;;5062301;28;20039;-69
2023/08/08 10:15:51;;;;;;;2.72;0.93;;;18.50;99.90;;;;;;5052423;28;20034;-69
2023/08/08 10:18:18;;;;;;;3.17;0.90;;;18.60;99.90;;;;;;5080503;28;20036;-69
2023/08/08 10:20:47;;;;;;;1.80;0.93;;;18.80;99.90;;;;;;5065419;28;20027;-69
2023/08/08 10:23:15;;;;;;;1.33;1.00;;;18.90;99.90;;;;;;5058093;28;20032;-69
2023/08/08 10:25:50;;;;;;;2.35;1.17;;;18.90;99.90;;;;;;5047313;28;20032;-68
2023/08/08 10:28:25;;;;;;;1.75;1.00;;;19.00;99.90;;;;;;5076529;28;20157;-68
2023/08/08 10:30:58;;;;;;;2.70;1.27;;;19.00;99.90;;;;;;5054322;28;20091;-68
2023/08/08 10:33:26;;;;;;;2.15;1.00;;;19.10;99.90;;;;;;5086425;28;20048;-69
2023/08/08 10:36:06;;;;;;;1.05;0.70;;;19.10;99.90;;;;;;5082134;28;20036;-68
2023/08/08 10:38:50;;;;;;;1.35;1.00;;;19.10;99.90;;;;;;5079659;28;20046;-69
2023/08/08 10:41:20;;;;;;;3.35;1.20;;;19.20;99.90;;;;;;5079019;28;20647;-69
2023/08/08 10:43:57;;;;;;;0.80;0.70;;;19.20;99.90;;;;;;5074577;28;20051;-69
2023/08/08 10:46:31;;;;;;;2.78;0.82;;;19.10;99.90;;;;;;5061769;28;20090;-69
2023/08/08 10:48:59;;;;;;;2.28;1.00;;;19.20;99.90;;;;;;5061464;28;20039;-69
2023/08/08 10:51:39;;;;;;;0.90;0.75;;;19.20;99.90;;;;;;5048054;28;21385;-69
2023/08/08 10:54:16;;;;;;;1.45;0.70;;;19.30;99.90;;;;;;5071342;28;20045;-68
2023/08/08 10:56:51;;;;;;;3.72;1.02;;;19.30;99.90;;;;;;5064424;28;20092;-68
2023/08/08 10:59:21;;;;;;;0.88;0.60;;;19.40;99.90;;;;;;5081295;28;20090;-68
2023/08/08 11:01:49;;;;;;;1.08;0.88;;;19.40;99.90;;;;;;5049342;28;20031;-68
2023/08/08 11:04:18;;;;;;;1.27;0.75;;;19.40;99.90;;;;;;5053716;28;20158;-75
2023/08/08 11:06:44;;;;;;;1.05;0.80;;;19.40;99.90;;;;;;5068912;28;20031;-76
2023/08/08 11:09:10;;;;;;;2.03;0.88;;;19.40;99.90;;;;;;5065834;28;20066;-76
2023/08/08 11:11:39;;;;;;;1.17;0.98;;;19.40;99.90;;;;;;5065324;28;20119;-77
2023/08/08 11:14:13;;;;;;;1.00;0.93;;;19.30;99.90;;;;;;5063587;28;21275;-76
2023/08/08 11:16:38;;;;;;;2.20;1.10;;;19.30;99.90;;;;;;5079783;28;20497;-77
2023/08/08 11:19:04;;;;;;;1.58;1.10;;;19.20;99.90;;;;;;5078311;28;20915;-76
2023/08/08 11:21:35;;;;;;;2.88;0.80;;;19.20;99.90;;;;;;5069341;28;20484;-76
2023/08/08 11:24:01;;;;;;;1.38;0.82;;;19.20;99.90;;;;;;5079263;28;20035;-76
2023/08/08 11:26:27;;;;;;;2.85;0.98;;;19.20;99.90;;;;;;5078433;28;20504;-77
2023/08/08 11:28:53;;;;;;;1.65;0.93;;;19.40;99.90;;;;;;5089440;28;20088;-77
2023/08/08 11:31:22;;;;;;;1.17;0.80;;;19.50;99.90;;;;;;5087992;28;20024;-76
2023/08/08 11:33:48;;;;;;;0.95;0.90;;;19.60;99.90;;;;;;5085375;27;20730;-77
2023/08/08 11:36:15;;;;;;;1.60;1.05;;;19.60;99.90;;;;;;5086308;28;20054;-77
2023/08/08 11:38:43;;;;;;;0.70;0.70;;;19.70;99.90;;;;;;5090735;28;20561;-77
2023/08/08 11:41:16;;;;;;;1.60;0.90;;;19.70;99.90;;;;;;5085947;28;20043;-77
2023/08/08 11:43:41;;;;;;;4.28;0.77;;;19.80;99.90;;;;;;5064460;28;20176;-77
2023/08/08 11:46:14;;;;;;;2.33;1.00;;;19.80;99.90;;;;;;5076391;28;20492;-77
2023/08/08 11:48:41;;;;;;;1.73;1.00;;;19.70;99.90;;;;;;5082278;28;20120;-77
2023/08/08 11:51:08;;;;;;;1.45;0.80;;;19.80;99.90;;;;;;5084073;28;20027;-78
2023/08/08 11:53:35;;;;;;;1.90;1.20;;;19.90;99.90;;;;;;5084438;28;20035;-77
2023/08/08 11:56:03;;;;;;;1.10;0.88;;;20.00;99.90;;;;;;5091755;28;20111;-78
2023/08/08 11:58:30;;;;;;;1.27;0.98;;;20.20;99.90;;;;;;5089004;28;20598;-76
2023/08/08 12:00:57;;;;;;;1.63;0.85;;;20.40;99.90;;;;;;5082488;28;20034;-77
2023/08/08 12:03:25;;;;;;;0.90;0.60;;;20.50;99.90;;;;;;5084217;28;20043;-77
2023/08/08 12:05:52;;;;;;;0.75;0.68;;;20.60;99.90;;;;;;5065306;28;20031;-76
2023/08/08 12:08:23;;;;;;;4.93;0.82;;;20.50;99.90;;;;;;5088763;28;20035;-75
2023/08/08 12:10:56;;;;;;;1.90;0.90;;;20.40;99.90;;;;;;5090618;28;20020;-77
2023/08/08 12:13:26;;;;;;;1.25;1.00;;;20.40;99.90;;;;;;5057158;28;20046;-76
2023/08/08 12:15:53;;;;;;;1.42;0.90;;;20.40;99.90;;;;;;5062140;28;21012;-76
2023/08/08 12:18:20;;;;;;;1.08;0.80;;;20.40;99.90;;;;;;5085876;28;20043;-68
2023/08/08 12:20:46;;;;;;;1.20;0.70;;;20.50;99.90;;;;;;5054452;28;20028;-73
2023/08/08 12:23:14;;;;;;;1.00;0.88;;;20.60;99.90;;;;;;5072544;28;20038;-73
2023/08/08 12:25:42;;;;;;;1.05;0.75;;;20.70;99.90;;;;;;5048316;28;20081;-72
2023/08/08 12:28:08;;;;;;;0.90;0.90;;;20.80;99.90;;;;;;5055569;28;20237;-72
2023/08/08 12:30:34;;;;;;;1.77;0.90;;;20.80;99.90;;;;;;5077549;28;21123;-73
2023/08/08 12:33:00;;;;;;;3.90;0.68;;;20.80;99.90;;;;;;5083100;28;20032;-73
2023/08/08 12:35:27;;;;;;;2.53;0.98;;;20.70;99.90;;;;;;5072940;28;20034;-73
2023/08/08 12:37:53;;;;;;;1.33;0.90;;;20.60;99.90;;;;;;5082540;28;20357;-72
2023/08/08 12:40:21;;;;;;;2.58;0.80;;;20.60;99.90;;;;;;5025171;28;20040;-72
2023/08/08 12:42:48;;;;;;;1.40;1.08;;;20.70;99.90;;;;;;5050102;28;20539;-72
2023/08/08 12:45:13;;;;;;;3.90;0.82;;;20.80;99.90;;;;;;5075213;28;20126;-73